sensor_id;sensor_type;location;lat;lon;timestamp;pressure;altitude;pressure_sealevel;temperature
8227;BMP180;4154;48.810;9.012;2023-07-31T00:00:39;97171.00;;;15.70
8227;BMP180;4154;48.810;9.012;2023-07-31T00:03:05;97166.00;;;15.60
8227;BMP180;4154;48.810;9.012;2023-07-31T00:05:31;97178.00;;;15.60
8227;BMP180;4154;48.810;9.012;2023-07-31T00:07:57;97172.00;;;15.60
8227;BMP180;4154;48.810;9.012;2023-07-31T00:10:22;97163.00;;;15.50
8227;BMP180;4154;48.810;9.012;2023-07-31T00:12:48;97167.00;;;15.50
8227;BMP180;4154;48.810;9.012;2023-07-31T00:15:14;97173.00;;;15.50
8227;BMP180;4154;48.810;9.012;2023-07-31T00:17:41;97171.00;;;15.60
8227;BMP180;4154;48.810;9.012;2023-07-31T00:20:07;97180.00;;;15.60
8227;BMP180;4154;48.810;9.012;2023-07-31T00:22:33;97171.00;;;15.50
8227;BMP180;4154;48.810;9.012;2023-07-31T00:24:59;97165.00;;;15.50
8227;BMP180;4154;48.810;9.012;2023-07-31T00:27:25;97167.00;;;15.50
8227;BMP180;4154;48.810;9.012;2023-07-31T00:29:52;97167.00;;;15.50
8227;BMP180;4154;48.810;9.012;2023-07-31T00:32:17;97161.00;;;15.50
8227;BMP180;4154;48.810;9.012;2023-07-31T00:34:43;97171.00;;;15.50
8227;BMP180;4154;48.810;9.012;2023-07-31T00:37:08;97170.00;;;15.50
8227;BMP180;4154;48.810;9.012;2023-07-31T00:39:35;97174.00;;;15.40
8227;BMP180;4154;48.810;9.012;2023-07-31T00:42:01;97165.00;;;15.40
8227;BMP180;4154;48.810;9.012;2023-07-31T00:44:27;97172.00;;;15.40
8227;BMP180;4154;48.810;9.012;2023-07-31T00:46:54;97161.00;;;15.30
8227;BMP180;4154;48.810;9.012;2023-07-31T00:49:22;97169.00;;;15.30
8227;BMP180;4154;48.810;9.012;2023-07-31T00:51:48;97169.00;;;15.30
8227;BMP180;4154;48.810;9.012;2023-07-31T00:54:14;97169.00;;;15.30
8227;BMP180;4154;48.810;9.012;2023-07-31T00:56:41;97167.00;;;15.30
8227;BMP180;4154;48.810;9.012;2023-07-31T00:59:07;97164.00;;;15.20
8227;BMP180;4154;48.810;9.012;2023-07-31T01:01:33;97161.00;;;15.20
8227;BMP180;4154;48.810;9.012;2023-07-31T01:03:59;97163.00;;;15.20
8227;BMP180;4154;48.810;9.012;2023-07-31T01:09:53;97165.00;;;15.20
8227;BMP180;4154;48.810;9.012;2023-07-31T01:12:24;97160.00;;;15.10
8227;BMP180;4154;48.810;9.012;2023-07-31T01:15:07;97156.00;;;15.10
8227;BMP180;4154;48.810;9.012;2023-07-31T01:17:39;97155.00;;;15.10
8227;BMP180;4154;48.810;9.012;2023-07-31T01:20:24;97150.00;;;15.00
8227;BMP180;4154;48.810;9.012;2023-07-31T01:26:16;97145.00;;;15.00
8227;BMP180;4154;48.810;9.012;2023-07-31T01:29:02;97143.00;;;15.00
8227;BMP180;4154;48.810;9.012;2023-07-31T01:31:30;97141.00;;;15.00
8227;BMP180;4154;48.810;9.012;2023-07-31T01:34:00;97133.00;;;15.00
8227;BMP180;4154;48.810;9.012;2023-07-31T01:36:27;97144.00;;;15.00
8227;BMP180;4154;48.810;9.012;2023-07-31T01:39:01;97135.00;;;15.00
8227;BMP180;4154;48.810;9.012;2023-07-31T01:41:27;97128.00;;;15.00
8227;BMP180;4154;48.810;9.012;2023-07-31T01:43:53;97134.00;;;15.00
8227;BMP180;4154;48.810;9.012;2023-07-31T01:46:19;97136.00;;;15.00
8227;BMP180;4154;48.810;9.012;2023-07-31T01:48:45;97136.00;;;15.00
8227;BMP180;4154;48.810;9.012;2023-07-31T01:51:11;97130.00;;;15.00
8227;BMP180;4154;48.810;9.012;2023-07-31T01:53:37;97125.00;;;15.00
8227;BMP180;4154;48.810;9.012;2023-07-31T01:56:02;97123.00;;;15.00
8227;BMP180;4154;48.810;9.012;2023-07-31T01:58:29;97123.00;;;15.00
8227;BMP180;4154;48.810;9.012;2023-07-31T02:00:54;97113.00;;;15.00
8227;BMP180;4154;48.810;9.012;2023-07-31T02:03:20;97111.00;;;14.90
8227;BMP180;4154;48.810;9.012;2023-07-31T02:05:48;97114.00;;;14.90
8227;BMP180;4154;48.810;9.012;2023-07-31T02:08:15;97114.00;;;15.00
8227;BMP180;4154;48.810;9.012;2023-07-31T02:10:42;97108.00;;;14.90
8227;BMP180;4154;48.810;9.012;2023-07-31T02:13:08;97102.00;;;14.90
8227;BMP180;4154;48.810;9.012;2023-07-31T02:15:34;97100.00;;;14.90
8227;BMP180;4154;48.810;9.012;2023-07-31T02:18:00;97101.00;;;14.90
8227;BMP180;4154;48.810;9.012;2023-07-31T02:20:26;97088.00;;;14.90
8227;BMP180;4154;48.810;9.012;2023-07-31T02:22:52;97086.00;;;14.90
8227;BMP180;4154;48.810;9.012;2023-07-31T02:25:18;97084.00;;;14.90
8227;BMP180;4154;48.810;9.012;2023-07-31T02:27:44;97082.00;;;14.90
8227;BMP180;4154;48.810;9.012;2023-07-31T02:30:10;97074.00;;;14.90
8227;BMP180;4154;48.810;9.012;2023-07-31T02:32:36;97074.00;;;14.90
8227;BMP180;4154;48.810;9.012;2023-07-31T02:35:02;97075.00;;;14.90
8227;BMP180;4154;48.810;9.012;2023-07-31T02:37:28;97071.00;;;14.90
8227;BMP180;4154;48.810;9.012;2023-07-31T02:39:54;97073.00;;;14.90
8227;BMP180;4154;48.810;9.012;2023-07-31T02:42:21;97067.00;;;14.90
8227;BMP180;4154;48.810;9.012;2023-07-31T02:44:46;97068.00;;;14.90
8227;BMP180;4154;48.810;9.012;2023-07-31T02:47:12;97077.00;;;14.90
8227;BMP180;4154;48.810;9.012;2023-07-31T02:49:39;97063.00;;;14.90
8227;BMP180;4154;48.810;9.012;2023-07-31T02:52:04;97065.00;;;14.90
8227;BMP180;4154;48.810;9.012;2023-07-31T02:54:31;97063.00;;;14.80
8227;BMP180;4154;48.810;9.012;2023-07-31T02:56:57;97057.00;;;14.80
8227;BMP180;4154;48.810;9.012;2023-07-31T02:59:23;97054.00;;;14.80
8227;BMP180;4154;48.810;9.012;2023-07-31T03:01:49;97064.00;;;14.90
8227;BMP180;4154;48.810;9.012;2023-07-31T03:04:14;97055.00;;;14.90
8227;BMP180;4154;48.810;9.012;2023-07-31T03:06:40;97058.00;;;14.90
8227;BMP180;4154;48.810;9.012;2023-07-31T03:09:06;97075.00;;;14.90
8227;BMP180;4154;48.810;9.012;2023-07-31T03:11:32;97072.00;;;14.90
8227;BMP180;4154;48.810;9.012;2023-07-31T03:13:58;97070.00;;;15.00
8227;BMP180;4154;48.810;9.012;2023-07-31T03:16:24;97059.00;;;15.00
8227;BMP180;4154;48.810;9.012;2023-07-31T03:18:50;97053.00;;;15.00
8227;BMP180;4154;48.810;9.012;2023-07-31T03:21:16;97058.00;;;15.00
8227;BMP180;4154;48.810;9.012;2023-07-31T03:23:42;97050.00;;;15.00
8227;BMP180;4154;48.810;9.012;2023-07-31T03:26:09;97053.00;;;15.10
8227;BMP180;4154;48.810;9.012;2023-07-31T03:28:35;97059.00;;;15.10
8227;BMP180;4154;48.810;9.012;2023-07-31T03:31:00;97049.00;;;15.10
8227;BMP180;4154;48.810;9.012;2023-07-31T03:33:26;97061.00;;;15.10
8227;BMP180;4154;48.810;9.012;2023-07-31T03:35:53;97053.00;;;15.10
8227;BMP180;4154;48.810;9.012;2023-07-31T03:38:19;97063.00;;;15.10
8227;BMP180;4154;48.810;9.012;2023-07-31T03:40:45;97061.00;;;15.10
8227;BMP180;4154;48.810;9.012;2023-07-31T03:43:12;97062.00;;;15.10
8227;BMP180;4154;48.810;9.012;2023-07-31T03:45:38;97065.00;;;15.10
8227;BMP180;4154;48.810;9.012;2023-07-31T03:48:04;97070.00;;;15.00
8227;BMP180;4154;48.810;9.012;2023-07-31T03:50:30;97056.00;;;15.00
8227;BMP180;4154;48.810;9.012;2023-07-31T03:52:56;97066.00;;;15.00
8227;BMP180;4154;48.810;9.012;2023-07-31T03:55:22;97058.00;;;15.10
8227;BMP180;4154;48.810;9.012;2023-07-31T03:57:48;97063.00;;;15.10
8227;BMP180;4154;48.810;9.012;2023-07-31T04:00:14;97063.00;;;15.00
8227;BMP180;4154;48.810;9.012;2023-07-31T04:02:40;97060.00;;;15.00
8227;BMP180;4154;48.810;9.012;2023-07-31T04:05:08;97058.00;;;15.00
8227;BMP180;4154;48.810;9.012;2023-07-31T04:07:33;97061.00;;;15.00
8227;BMP180;4154;48.810;9.012;2023-07-31T04:10:00;97050.00;;;15.10
8227;BMP180;4154;48.810;9.012;2023-07-31T04:12:26;97055.00;;;15.10
8227;BMP180;4154;48.810;9.012;2023-07-31T04:14:52;97050.00;;;15.10
8227;BMP180;4154;48.810;9.012;2023-07-31T04:17:19;97046.00;;;15.10
8227;BMP180;4154;48.810;9.012;2023-07-31T04:19:45;97039.00;;;15.20
8227;BMP180;4154;48.810;9.012;2023-07-31T04:22:10;97047.00;;;15.20
8227;BMP180;4154;48.810;9.012;2023-07-31T04:24:36;97051.00;;;15.20
8227;BMP180;4154;48.810;9.012;2023-07-31T04:27:03;97046.00;;;15.20
8227;BMP180;4154;48.810;9.012;2023-07-31T04:29:28;97036.00;;;15.20
8227;BMP180;4154;48.810;9.012;2023-07-31T04:31:54;97043.00;;;15.20
8227;BMP180;4154;48.810;9.012;2023-07-31T04:34:21;97042.00;;;15.20
8227;BMP180;4154;48.810;9.012;2023-07-31T04:36:47;97046.00;;;15.30
8227;BMP180;4154;48.810;9.012;2023-07-31T04:39:13;97046.00;;;15.30
8227;BMP180;4154;48.810;9.012;2023-07-31T04:41:39;97051.00;;;15.40
8227;BMP180;4154;48.810;9.012;2023-07-31T04:44:05;97042.00;;;15.40
8227;BMP180;4154;48.810;9.012;2023-07-31T04:46:31;97048.00;;;15.40
8227;BMP180;4154;48.810;9.012;2023-07-31T04:48:57;97049.00;;;15.50
8227;BMP180;4154;48.810;9.012;2023-07-31T04:51:23;97049.00;;;15.50
8227;BMP180;4154;48.810;9.012;2023-07-31T04:53:49;97049.00;;;15.50
8227;BMP180;4154;48.810;9.012;2023-07-31T04:56:16;97055.00;;;15.60
8227;BMP180;4154;48.810;9.012;2023-07-31T04:58:42;97050.00;;;15.60
8227;BMP180;4154;48.810;9.012;2023-07-31T05:01:08;97057.00;;;15.60
8227;BMP180;4154;48.810;9.012;2023-07-31T05:03:34;97041.00;;;15.60
8227;BMP180;4154;48.810;9.012;2023-07-31T05:06:00;97040.00;;;15.60
8227;BMP180;4154;48.810;9.012;2023-07-31T05:08:26;97046.00;;;15.60
8227;BMP180;4154;48.810;9.012;2023-07-31T05:10:55;97040.00;;;15.70
8227;BMP180;4154;48.810;9.012;2023-07-31T05:13:21;97037.00;;;15.70
8227;BMP180;4154;48.810;9.012;2023-07-31T05:15:47;97041.00;;;15.70
8227;BMP180;4154;48.810;9.012;2023-07-31T05:18:15;97043.00;;;15.70
8227;BMP180;4154;48.810;9.012;2023-07-31T05:20:41;97033.00;;;15.70
8227;BMP180;4154;48.810;9.012;2023-07-31T05:23:07;97038.00;;;15.70
8227;BMP180;4154;48.810;9.012;2023-07-31T05:25:33;97042.00;;;15.80
8227;BMP180;4154;48.810;9.012;2023-07-31T05:27:59;97042.00;;;15.80
8227;BMP180;4154;48.810;9.012;2023-07-31T05:30:25;97040.00;;;15.80
8227;BMP180;4154;48.810;9.012;2023-07-31T05:32:52;97043.00;;;15.80
8227;BMP180;4154;48.810;9.012;2023-07-31T05:35:18;97041.00;;;15.80
8227;BMP180;4154;48.810;9.012;2023-07-31T05:37:44;97048.00;;;15.80
8227;BMP180;4154;48.810;9.012;2023-07-31T05:40:10;97042.00;;;15.90
8227;BMP180;4154;48.810;9.012;2023-07-31T05:42:36;97037.00;;;15.90
8227;BMP180;4154;48.810;9.012;2023-07-31T05:45:05;97026.00;;;15.90
8227;BMP180;4154;48.810;9.012;2023-07-31T05:47:31;97038.00;;;16.00
8227;BMP180;4154;48.810;9.012;2023-07-31T05:49:57;97028.00;;;16.00
8227;BMP180;4154;48.810;9.012;2023-07-31T05:52:23;97029.00;;;16.00
8227;BMP180;4154;48.810;9.012;2023-07-31T05:54:50;97029.00;;;16.10
8227;BMP180;4154;48.810;9.012;2023-07-31T05:57:17;97028.00;;;16.20
8227;BMP180;4154;48.810;9.012;2023-07-31T05:59:43;97038.00;;;16.20
8227;BMP180;4154;48.810;9.012;2023-07-31T06:02:09;97035.00;;;16.20
8227;BMP180;4154;48.810;9.012;2023-07-31T06:04:35;97035.00;;;16.30
8227;BMP180;4154;48.810;9.012;2023-07-31T06:07:01;97037.00;;;16.30
8227;BMP180;4154;48.810;9.012;2023-07-31T06:09:31;97042.00;;;16.30
8227;BMP180;4154;48.810;9.012;2023-07-31T06:11:57;97042.00;;;16.40
8227;BMP180;4154;48.810;9.012;2023-07-31T06:14:23;97031.00;;;16.40
8227;BMP180;4154;48.810;9.012;2023-07-31T06:16:49;97025.00;;;16.50
8227;BMP180;4154;48.810;9.012;2023-07-31T06:19:15;97018.00;;;16.50
8227;BMP180;4154;48.810;9.012;2023-07-31T06:21:41;97025.00;;;16.60
8227;BMP180;4154;48.810;9.012;2023-07-31T06:24:10;97042.00;;;16.70
8227;BMP180;4154;48.810;9.012;2023-07-31T06:26:38;97024.00;;;16.80
8227;BMP180;4154;48.810;9.012;2023-07-31T06:29:03;97037.00;;;16.80
8227;BMP180;4154;48.810;9.012;2023-07-31T06:31:29;97027.00;;;16.80
8227;BMP180;4154;48.810;9.012;2023-07-31T06:33:55;97033.00;;;16.90
8227;BMP180;4154;48.810;9.012;2023-07-31T06:36:21;97034.00;;;16.90
8227;BMP180;4154;48.810;9.012;2023-07-31T06:38:47;97036.00;;;17.00
8227;BMP180;4154;48.810;9.012;2023-07-31T06:41:13;97035.00;;;17.00
8227;BMP180;4154;48.810;9.012;2023-07-31T06:43:39;97033.00;;;17.10
8227;BMP180;4154;48.810;9.012;2023-07-31T06:46:07;97040.00;;;17.10
8227;BMP180;4154;48.810;9.012;2023-07-31T06:48:35;97034.00;;;17.20
8227;BMP180;4154;48.810;9.012;2023-07-31T06:51:07;97042.00;;;17.30
8227;BMP180;4154;48.810;9.012;2023-07-31T06:53:33;97040.00;;;17.40
8227;BMP180;4154;48.810;9.012;2023-07-31T06:55:59;97042.00;;;17.40
8227;BMP180;4154;48.810;9.012;2023-07-31T06:58:25;97041.00;;;17.40
8227;BMP180;4154;48.810;9.012;2023-07-31T07:00:52;97049.00;;;17.40
8227;BMP180;4154;48.810;9.012;2023-07-31T07:03:18;97039.00;;;17.50
8227;BMP180;4154;48.810;9.012;2023-07-31T07:05:45;97033.00;;;17.60
8227;BMP180;4154;48.810;9.012;2023-07-31T07:08:11;97031.00;;;17.70
8227;BMP180;4154;48.810;9.012;2023-07-31T07:10:37;97042.00;;;17.70
8227;BMP180;4154;48.810;9.012;2023-07-31T07:13:03;97029.00;;;17.80
8227;BMP180;4154;48.810;9.012;2023-07-31T07:15:29;97033.00;;;17.90
8227;BMP180;4154;48.810;9.012;2023-07-31T07:17:55;97022.00;;;17.90
8227;BMP180;4154;48.810;9.012;2023-07-31T07:20:22;97020.00;;;17.90
8227;BMP180;4154;48.810;9.012;2023-07-31T07:22:48;97014.00;;;17.90
8227;BMP180;4154;48.810;9.012;2023-07-31T07:25:14;97014.00;;;18.00
8227;BMP180;4154;48.810;9.012;2023-07-31T07:27:40;97018.00;;;18.00
8227;BMP180;4154;48.810;9.012;2023-07-31T07:30:06;97015.00;;;18.00
8227;BMP180;4154;48.810;9.012;2023-07-31T07:32:33;97014.00;;;18.10
8227;BMP180;4154;48.810;9.012;2023-07-31T07:34:58;97011.00;;;18.10
8227;BMP180;4154;48.810;9.012;2023-07-31T07:37:24;97009.00;;;18.00
8227;BMP180;4154;48.810;9.012;2023-07-31T07:39:51;97008.00;;;18.00
8227;BMP180;4154;48.810;9.012;2023-07-31T07:42:17;97009.00;;;18.00
8227;BMP180;4154;48.810;9.012;2023-07-31T07:44:43;97006.00;;;18.10
8227;BMP180;4154;48.810;9.012;2023-07-31T07:47:09;97022.00;;;18.10
8227;BMP180;4154;48.810;9.012;2023-07-31T07:49:36;97011.00;;;18.20
8227;BMP180;4154;48.810;9.012;2023-07-31T07:52:03;97009.00;;;18.20
8227;BMP180;4154;48.810;9.012;2023-07-31T07:54:29;97010.00;;;18.30
8227;BMP180;4154;48.810;9.012;2023-07-31T07:56:56;97013.00;;;18.50
8227;BMP180;4154;48.810;9.012;2023-07-31T07:59:22;97003.00;;;18.50
8227;BMP180;4154;48.810;9.012;2023-07-31T08:01:48;97011.00;;;18.50
8227;BMP180;4154;48.810;9.012;2023-07-31T08:04:14;97012.00;;;18.60
8227;BMP180;4154;48.810;9.012;2023-07-31T08:06:40;97007.00;;;18.50
8227;BMP180;4154;48.810;9.012;2023-07-31T08:09:06;97010.00;;;18.50
8227;BMP180;4154;48.810;9.012;2023-07-31T08:11:33;96992.00;;;18.50
8227;BMP180;4154;48.810;9.012;2023-07-31T08:13:59;96997.00;;;18.60
8227;BMP180;4154;48.810;9.012;2023-07-31T08:16:25;96985.00;;;18.70
8227;BMP180;4154;48.810;9.012;2023-07-31T08:18:51;96978.00;;;18.80
8227;BMP180;4154;48.810;9.012;2023-07-31T08:21:17;96996.00;;;18.90
8227;BMP180;4154;48.810;9.012;2023-07-31T08:23:44;96993.00;;;18.90
8227;BMP180;4154;48.810;9.012;2023-07-31T08:26:18;96987.00;;;18.90
8227;BMP180;4154;48.810;9.012;2023-07-31T08:28:44;96991.00;;;18.90
8227;BMP180;4154;48.810;9.012;2023-07-31T08:31:17;96980.00;;;18.90
8227;BMP180;4154;48.810;9.012;2023-07-31T08:33:44;96992.00;;;18.90
8227;BMP180;4154;48.810;9.012;2023-07-31T08:36:10;96996.00;;;18.90
8227;BMP180;4154;48.810;9.012;2023-07-31T08:38:36;96986.00;;;19.00
8227;BMP180;4154;48.810;9.012;2023-07-31T08:41:05;96976.00;;;18.90
8227;BMP180;4154;48.810;9.012;2023-07-31T08:43:31;96987.00;;;18.90
8227;BMP180;4154;48.810;9.012;2023-07-31T08:45:58;96981.00;;;18.90
8227;BMP180;4154;48.810;9.012;2023-07-31T08:48:25;96973.00;;;18.90
8227;BMP180;4154;48.810;9.012;2023-07-31T08:50:54;96979.00;;;19.00
8227;BMP180;4154;48.810;9.012;2023-07-31T08:53:20;96978.00;;;19.00
8227;BMP180;4154;48.810;9.012;2023-07-31T08:55:48;96980.00;;;19.10
8227;BMP180;4154;48.810;9.012;2023-07-31T08:58:14;96974.00;;;19.10
8227;BMP180;4154;48.810;9.012;2023-07-31T09:00:42;96965.00;;;19.20
8227;BMP180;4154;48.810;9.012;2023-07-31T09:03:17;96974.00;;;19.30
8227;BMP180;4154;48.810;9.012;2023-07-31T09:05:46;96955.00;;;19.30
8227;BMP180;4154;48.810;9.012;2023-07-31T09:08:14;96963.00;;;19.40
8227;BMP180;4154;48.810;9.012;2023-07-31T09:10:42;96957.00;;;19.50
8227;BMP180;4154;48.810;9.012;2023-07-31T09:13:09;96954.00;;;19.50
8227;BMP180;4154;48.810;9.012;2023-07-31T09:15:36;96967.00;;;19.60
8227;BMP180;4154;48.810;9.012;2023-07-31T09:18:04;96971.00;;;19.60
8227;BMP180;4154;48.810;9.012;2023-07-31T09:20:31;96964.00;;;19.60
8227;BMP180;4154;48.810;9.012;2023-07-31T09:23:10;96956.00;;;19.70
8227;BMP180;4154;48.810;9.012;2023-07-31T09:25:37;96955.00;;;19.70
8227;BMP180;4154;48.810;9.012;2023-07-31T09:28:06;96954.00;;;19.70
8227;BMP180;4154;48.810;9.012;2023-07-31T09:30:51;96962.00;;;19.70
8227;BMP180;4154;48.810;9.012;2023-07-31T09:33:19;96960.00;;;19.60
8227;BMP180;4154;48.810;9.012;2023-07-31T09:35:46;96947.00;;;19.60
8227;BMP180;4154;48.810;9.012;2023-07-31T09:38:14;96949.00;;;19.70
8227;BMP180;4154;48.810;9.012;2023-07-31T09:40:48;96943.00;;;19.80
8227;BMP180;4154;48.810;9.012;2023-07-31T09:43:20;96934.00;;;19.80
8227;BMP180;4154;48.810;9.012;2023-07-31T09:45:47;96931.00;;;19.90
8227;BMP180;4154;48.810;9.012;2023-07-31T09:48:17;96930.00;;;19.90
8227;BMP180;4154;48.810;9.012;2023-07-31T09:50:46;96915.00;;;19.90
8227;BMP180;4154;48.810;9.012;2023-07-31T09:53:12;96916.00;;;20.00
8227;BMP180;4154;48.810;9.012;2023-07-31T09:55:39;96915.00;;;20.00
8227;BMP180;4154;48.810;9.012;2023-07-31T09:58:09;96920.00;;;20.10
8227;BMP180;4154;48.810;9.012;2023-07-31T10:00:35;96927.00;;;20.10
8227;BMP180;4154;48.810;9.012;2023-07-31T10:03:06;96918.00;;;20.10
8227;BMP180;4154;48.810;9.012;2023-07-31T10:05:37;96914.00;;;20.20
8227;BMP180;4154;48.810;9.012;2023-07-31T10:08:06;96909.00;;;20.20
8227;BMP180;4154;48.810;9.012;2023-07-31T10:10:33;96909.00;;;20.30
8227;BMP180;4154;48.810;9.012;2023-07-31T10:13:02;96899.00;;;20.30
8227;BMP180;4154;48.810;9.012;2023-07-31T10:15:30;96899.00;;;20.40
8227;BMP180;4154;48.810;9.012;2023-07-31T10:17:57;96907.00;;;20.40
8227;BMP180;4154;48.810;9.012;2023-07-31T10:20:24;96894.00;;;20.50
8227;BMP180;4154;48.810;9.012;2023-07-31T10:22:51;96902.00;;;20.50
8227;BMP180;4154;48.810;9.012;2023-07-31T10:25:19;96895.00;;;20.60
8227;BMP180;4154;48.810;9.012;2023-07-31T10:27:47;96887.00;;;20.70
8227;BMP180;4154;48.810;9.012;2023-07-31T10:30:22;96878.00;;;20.80
8227;BMP180;4154;48.810;9.012;2023-07-31T10:32:51;96874.00;;;20.90
8227;BMP180;4154;48.810;9.012;2023-07-31T10:35:19;96877.00;;;21.10
8227;BMP180;4154;48.810;9.012;2023-07-31T10:37:48;96884.00;;;21.10
8227;BMP180;4154;48.810;9.012;2023-07-31T10:40:19;96884.00;;;21.20
8227;BMP180;4154;48.810;9.012;2023-07-31T10:45:42;96884.00;;;21.30
8227;BMP180;4154;48.810;9.012;2023-07-31T10:48:16;96884.00;;;21.50
8227;BMP180;4154;48.810;9.012;2023-07-31T10:50:55;96884.00;;;21.60
8227;BMP180;4154;48.810;9.012;2023-07-31T10:53:30;96885.00;;;21.70
8227;BMP180;4154;48.810;9.012;2023-07-31T10:56:00;96877.00;;;21.80
8227;BMP180;4154;48.810;9.012;2023-07-31T10:58:26;96879.00;;;21.70
8227;BMP180;4154;48.810;9.012;2023-07-31T11:00:57;96882.00;;;21.70
8227;BMP180;4154;48.810;9.012;2023-07-31T11:03:47;96876.00;;;21.70
8227;BMP180;4154;48.810;9.012;2023-07-31T11:06:15;96880.00;;;21.70
8227;BMP180;4154;48.810;9.012;2023-07-31T11:08:46;96882.00;;;21.70
8227;BMP180;4154;48.810;9.012;2023-07-31T11:11:19;96875.00;;;21.60
8227;BMP180;4154;48.810;9.012;2023-07-31T11:13:51;96880.00;;;21.60
8227;BMP180;4154;48.810;9.012;2023-07-31T11:16:23;96875.00;;;21.70
8227;BMP180;4154;48.810;9.012;2023-07-31T11:18:50;96873.00;;;21.60
8227;BMP180;4154;48.810;9.012;2023-07-31T11:21:19;96872.00;;;21.60
8227;BMP180;4154;48.810;9.012;2023-07-31T11:23:47;96873.00;;;21.60
8227;BMP180;4154;48.810;9.012;2023-07-31T11:26:14;96879.00;;;21.60
8227;BMP180;4154;48.810;9.012;2023-07-31T11:28:41;96879.00;;;21.60
8227;BMP180;4154;48.810;9.012;2023-07-31T11:31:10;96874.00;;;21.60
8227;BMP180;4154;48.810;9.012;2023-07-31T11:33:36;96877.00;;;21.50
8227;BMP180;4154;48.810;9.012;2023-07-31T11:36:02;96870.00;;;21.50
8227;BMP180;4154;48.810;9.012;2023-07-31T11:38:31;96864.00;;;21.50
8227;BMP180;4154;48.810;9.012;2023-07-31T11:41:00;96869.00;;;21.40
8227;BMP180;4154;48.810;9.012;2023-07-31T11:43:28;96857.00;;;21.30
8227;BMP180;4154;48.810;9.012;2023-07-31T11:46:00;96861.00;;;21.30
8227;BMP180;4154;48.810;9.012;2023-07-31T11:48:32;96838.00;;;21.20
8227;BMP180;4154;48.810;9.012;2023-07-31T11:51:08;96860.00;;;21.20
8227;BMP180;4154;48.810;9.012;2023-07-31T11:54:00;96852.00;;;21.30
8227;BMP180;4154;48.810;9.012;2023-07-31T11:56:27;96842.00;;;21.30
8227;BMP180;4154;48.810;9.012;2023-07-31T11:58:58;96835.00;;;21.30
8227;BMP180;4154;48.810;9.012;2023-07-31T12:01:25;96841.00;;;21.40
8227;BMP180;4154;48.810;9.012;2023-07-31T12:03:53;96827.00;;;21.40
8227;BMP180;4154;48.810;9.012;2023-07-31T12:06:19;96834.00;;;21.40
8227;BMP180;4154;48.810;9.012;2023-07-31T12:08:48;96830.00;;;21.30
8227;BMP180;4154;48.810;9.012;2023-07-31T12:11:15;96828.00;;;21.30
8227;BMP180;4154;48.810;9.012;2023-07-31T12:13:43;96832.00;;;21.40
8227;BMP180;4154;48.810;9.012;2023-07-31T12:16:09;96834.00;;;21.40
8227;BMP180;4154;48.810;9.012;2023-07-31T12:18:37;96837.00;;;21.40
8227;BMP180;4154;48.810;9.012;2023-07-31T12:21:08;96825.00;;;21.50
8227;BMP180;4154;48.810;9.012;2023-07-31T12:23:37;96820.00;;;21.50
8227;BMP180;4154;48.810;9.012;2023-07-31T12:26:13;96821.00;;;21.50
8227;BMP180;4154;48.810;9.012;2023-07-31T12:28:47;96814.00;;;21.50
8227;BMP180;4154;48.810;9.012;2023-07-31T12:31:20;96811.00;;;21.40
8227;BMP180;4154;48.810;9.012;2023-07-31T12:33:48;96808.00;;;21.40
8227;BMP180;4154;48.810;9.012;2023-07-31T12:36:23;96802.00;;;21.40
8227;BMP180;4154;48.810;9.012;2023-07-31T12:38:52;96812.00;;;21.40
8227;BMP180;4154;48.810;9.012;2023-07-31T12:41:19;96813.00;;;21.40
8227;BMP180;4154;48.810;9.012;2023-07-31T12:43:45;96803.00;;;21.40
8227;BMP180;4154;48.810;9.012;2023-07-31T12:46:11;96799.00;;;21.50
8227;BMP180;4154;48.810;9.012;2023-07-31T12:48:39;96789.00;;;21.50
8227;BMP180;4154;48.810;9.012;2023-07-31T12:51:05;96795.00;;;21.50
8227;BMP180;4154;48.810;9.012;2023-07-31T12:53:35;96789.00;;;21.50
8227;BMP180;4154;48.810;9.012;2023-07-31T12:56:01;96789.00;;;21.50
8227;BMP180;4154;48.810;9.012;2023-07-31T12:58:28;96777.00;;;21.60
8227;BMP180;4154;48.810;9.012;2023-07-31T13:00:54;96773.00;;;21.60
8227;BMP180;4154;48.810;9.012;2023-07-31T13:03:20;96775.00;;;21.70
8227;BMP180;4154;48.810;9.012;2023-07-31T13:05:47;96771.00;;;21.70
8227;BMP180;4154;48.810;9.012;2023-07-31T13:08:13;96770.00;;;21.70
8227;BMP180;4154;48.810;9.012;2023-07-31T13:10:41;96770.00;;;21.70
8227;BMP180;4154;48.810;9.012;2023-07-31T13:13:07;96772.00;;;21.70
8227;BMP180;4154;48.810;9.012;2023-07-31T13:15:35;96757.00;;;21.70
8227;BMP180;4154;48.810;9.012;2023-07-31T13:18:01;96761.00;;;21.70
8227;BMP180;4154;48.810;9.012;2023-07-31T13:20:28;96755.00;;;21.70
8227;BMP180;4154;48.810;9.012;2023-07-31T13:22:54;96758.00;;;21.70
8227;BMP180;4154;48.810;9.012;2023-07-31T13:25:20;96757.00;;;21.80
8227;BMP180;4154;48.810;9.012;2023-07-31T13:27:46;96748.00;;;21.80
8227;BMP180;4154;48.810;9.012;2023-07-31T13:30:12;96753.00;;;21.90
8227;BMP180;4154;48.810;9.012;2023-07-31T13:32:43;96751.00;;;21.80
8227;BMP180;4154;48.810;9.012;2023-07-31T13:35:11;96756.00;;;21.80
8227;BMP180;4154;48.810;9.012;2023-07-31T13:37:37;96755.00;;;21.80
8227;BMP180;4154;48.810;9.012;2023-07-31T13:40:04;96750.00;;;21.80
8227;BMP180;4154;48.810;9.012;2023-07-31T13:42:31;96749.00;;;21.80
8227;BMP180;4154;48.810;9.012;2023-07-31T13:44:57;96746.00;;;21.80
8227;BMP180;4154;48.810;9.012;2023-07-31T13:47:23;96744.00;;;21.80
8227;BMP180;4154;48.810;9.012;2023-07-31T13:49:49;96744.00;;;21.80
8227;BMP180;4154;48.810;9.012;2023-07-31T13:52:15;96753.00;;;21.80
8227;BMP180;4154;48.810;9.012;2023-07-31T13:54:41;96740.00;;;21.70
8227;BMP180;4154;48.810;9.012;2023-07-31T13:57:08;96735.00;;;21.70
8227;BMP180;4154;48.810;9.012;2023-07-31T13:59:34;96730.00;;;21.70
8227;BMP180;4154;48.810;9.012;2023-07-31T14:02:01;96727.00;;;21.60
8227;BMP180;4154;48.810;9.012;2023-07-31T14:04:28;96739.00;;;21.70
8227;BMP180;4154;48.810;9.012;2023-07-31T14:06:55;96731.00;;;21.60
8227;BMP180;4154;48.810;9.012;2023-07-31T14:09:21;96729.00;;;21.60
8227;BMP180;4154;48.810;9.012;2023-07-31T14:11:48;96723.00;;;21.60
8227;BMP180;4154;48.810;9.012;2023-07-31T14:14:14;96720.00;;;21.70
8227;BMP180;4154;48.810;9.012;2023-07-31T14:16:40;96714.00;;;21.70
8227;BMP180;4154;48.810;9.012;2023-07-31T14:19:06;96715.00;;;21.80
8227;BMP180;4154;48.810;9.012;2023-07-31T14:21:34;96724.00;;;21.80
8227;BMP180;4154;48.810;9.012;2023-07-31T14:24:00;96720.00;;;21.90
8227;BMP180;4154;48.810;9.012;2023-07-31T14:26:26;96722.00;;;21.90
8227;BMP180;4154;48.810;9.012;2023-07-31T14:28:52;96716.00;;;21.90
8227;BMP180;4154;48.810;9.012;2023-07-31T14:31:18;96704.00;;;21.90
8227;BMP180;4154;48.810;9.012;2023-07-31T14:33:44;96718.00;;;21.90
8227;BMP180;4154;48.810;9.012;2023-07-31T14:36:10;96697.00;;;22.00
8227;BMP180;4154;48.810;9.012;2023-07-31T14:38:36;96706.00;;;22.00
8227;BMP180;4154;48.810;9.012;2023-07-31T14:41:02;96708.00;;;22.00
8227;BMP180;4154;48.810;9.012;2023-07-31T14:43:28;96708.00;;;22.00